Flight Track Log - Related Links

Times and Time Zones

All times are in EDT time to prevent confusion due to time zone crossing. See the RPA3242 flight status page for this flight to view local times or setup timezone preferences in your user account.

Time Position Orientation Groundspeed Altitude Reporting Facility
EDT Latitude Longitude Course Direction KTS MPH feet Rate Location/Type
Sat 09:22:51 PM 39.8667 -75.2333 37° Northeast 136 157 800  Level Philadelphia TRACON
Sat 09:23:39 PM 39.8667 -75.1833 90° East 188 216 2,200 2,059 Climbing Philadelphia TRACON
Sat 09:24:33 PM 39.8667 -75.1000 90° East 260 299 4,300 2,656 Climbing Philadelphia TRACON
Sat 09:25:00 PM 39.8167 -74.9237 90° East  Level FlightAware Approximate
Sat 09:26:00 PM 39.8067 -74.8167 105° East  Level FlightAware Approximate
Sat 09:26:51 PM 39.8253 -74.8794 104° East 287 330 10,700  Level New York Center
Sat 09:27:00 PM 39.7857 -74.7116 105° East  Level FlightAware Approximate
Sat 09:27:51 PM 39.8061 -74.7700 103° East 312 359 12,400  Level New York Center
Sat 09:28:00 PM 39.8422 -74.6412 37° Northeast  Level FlightAware Approximate
Sat 09:28:53 PM 39.8428 -74.6669 65° Northeast 302 348 14,900  Level New York Center
Sat 09:29:53 PM 39.9206 -74.5900 37° Northeast 293 337 17,200 1,881 Climbing New York Center
Sat 09:30:51 PM 39.9978 -74.5156 36° Northeast 319 367 18,600 1,627 Climbing New York Center
Sat 09:31:51 PM 40.0794 -74.4358 37° Northeast 361 415 20,400 1,686 Climbing New York Center
Sat 09:32:52 PM 40.1592 -74.3558 37° Northeast 361 415 22,000 1,488 Climbing New York Center
Sat 09:33:52 PM 40.2431 -74.2733 37° Northeast 361 415 23,400 1,000 Climbing New York Center
Sat 09:34:52 PM 40.3306 -74.2042 31° Northeast 366 421 24,000 298 Climbing New York Center
Sat 09:35:53 PM 40.4197 -74.1378 30° Northeast 366 421 24,000  Level New York Center
Sat 09:36:52 PM 40.5114 -74.0714 29° Northeast 366 421 24,000  Level New York Center
Sat 09:37:52 PM 40.5986 -74.0044 30° Northeast 366 421 24,000  Level New York Center
Sat 09:38:52 PM 40.6878 -73.9403 29° Northeast 366 421 24,000  Level New York Center
Sat 09:40:31 PM 40.8394 -73.8092 33° Northeast 378 435 24,000  Level Boston Center
Sat 09:41:31 PM 40.9178 -73.7117 43° Northeast 383 441 24,000  Level Boston Center
Sat 09:42:43 PM 40.9939 -73.6061 46° Northeast 383 441 24,000 -318 Level Boston Center
Sat 09:43:43 PM 41.1053 -73.5228 29° Northeast 389 448 23,300 -1,550 Descending Boston Center
Sat 09:44:43 PM 41.2069 -73.5436 351° North 338 389 20,900 -1,650 Descending Boston Center
Sat 09:45:43 PM 41.3092 -73.5592 353° North 345 397 20,000 -800 Descending Boston Center
Sat 09:46:43 PM 41.4111 -73.5750 353° North 356 410 19,300 -1,835 Descending Boston Center
Sat 09:47:44 PM 41.5067 -73.5933 352° North 356 410 16,300 -2,650 Descending Boston Center
Sat 09:48:43 PM 41.6025 -73.6089 353° North 349 402 14,000 -1,966 Descending Boston Center
Sat 09:49:43 PM 41.6981 -73.6244 353° North 349 402 12,400 -1,500 Descending Boston Center
Sat 09:50:43 PM 41.7917 -73.6403 353° North 349 402 11,000 -700 Descending Boston Center
Sat 09:51:43 PM 41.8853 -73.6586 352° North 349 402 11,000  Level Boston Center
Sat 09:52:27 PM 41.9561 -73.6683 354° North 339 390 11,000  Level Boston Center
Sat 09:52:43 PM 41.9789 -73.6717 354° North 344 396 11,000  Level Boston Center
Sat 09:53:34 PM 42.0558 -73.6844 353° North 340 391 11,000  Level Boston Center
Sat 09:54:34 PM 42.1558 -73.7031 352° North 342 394 11,000 -198 Level Boston Center
Sat 09:55:35 PM 42.2431 -73.7189 352° North 316 364 10,600 -1,031 Descending Boston Center
Sat 09:56:42 PM 42.3286 -73.7292 355° North 267 307 8,800 -1,701 Descending Boston Center
Sat 09:57:42 PM 42.4036 -73.7278 North 268 308 7,000 -1,983 Descending Boston Center
Sat 09:58:43 PM 42.4786 -73.7322 357° North 267 307 4,800 -1,488 Descending Boston Center
Sat 09:59:43 PM 42.5597 -73.7311 North 271 312 4,000 -750 Descending Boston Center
Sat 10:00:43 PM 42.6244 -73.7325 359° North 273 314 3,300 -738 Descending Boston Center
Sat 10:01:45 PM 42.7014 -73.7311 North 236 272 2,500 -639 Descending Boston Center
Sat 10:02:45 PM 42.7619 -73.7239 North 216 249 2,000 -356 Descending Boston Center
Sat 10:03:43 PM 42.8206 -73.7194 North 410 472 1,800 -207 Descending Boston Center

Login

Don't have an account? Register now (free) for customized features, flight alerts, and more!